createdAt,value
2017-09-06T00:00:42.506Z,14.92
2017-09-06T00:01:42.528Z,14.8
2017-09-06T00:02:42.550Z,14.84
2017-09-06T00:04:42.609Z,14.77
2017-09-06T00:05:42.635Z,14.78
2017-09-06T00:06:42.646Z,14.77
2017-09-06T00:07:42.665Z,14.8
2017-09-06T00:08:42.736Z,14.75
2017-09-06T00:09:42.711Z,14.75
2017-09-06T00:10:42.729Z,14.78
2017-09-06T00:11:42.755Z,14.78
2017-09-06T00:12:42.783Z,14.81
2017-09-06T00:13:57.428Z,14.8
2017-09-06T00:14:42.825Z,14.78
2017-09-06T00:15:42.859Z,14.77
2017-09-06T00:16:57.489Z,14.75
2017-09-06T00:17:42.900Z,14.72
2017-09-06T00:18:42.921Z,14.72
2017-09-06T00:19:42.636Z,14.58
2017-09-06T00:20:42.965Z,14.62
2017-09-06T00:21:42.675Z,14.7
2017-09-06T00:22:42.695Z,14.73
2017-09-06T00:23:43.032Z,14.73
2017-09-06T00:24:42.750Z,14.72
2017-09-06T00:25:43.081Z,14.77
2017-09-06T00:26:43.146Z,14.62
2017-09-06T00:27:43.121Z,14.64
2017-09-06T00:28:43.154Z,14.72
2017-09-06T00:29:57.793Z,14.75
2017-09-06T00:30:43.195Z,14.81
2017-09-06T00:31:43.211Z,14.77
2017-09-06T00:32:43.250Z,14.64
2017-09-06T00:33:43.266Z,14.65
2017-09-06T00:34:43.279Z,14.7
2017-09-06T00:35:43.310Z,14.73
2017-09-06T00:36:43.339Z,14.75
2017-09-06T00:37:43.357Z,14.75
2017-09-06T00:38:43.371Z,14.77
2017-09-06T00:39:58.024Z,14.72
2017-09-06T00:40:42.808Z,14.78
2017-09-06T00:41:42.829Z,14.73
2017-09-06T00:42:43.459Z,14.75
2017-09-06T00:43:43.498Z,14.69
2017-09-06T00:44:58.134Z,14.73
2017-09-06T00:45:58.153Z,14.55
2017-09-06T00:47:43.586Z,14.69
2017-09-06T00:48:43.602Z,14.65
2017-09-06T00:49:43.630Z,14.6
2017-09-06T00:50:43.656Z,14.6
2017-09-06T00:51:43.684Z,14.73
2017-09-06T00:52:43.694Z,14.7
2017-09-06T00:53:43.751Z,14.73
2017-09-06T00:54:43.745Z,14.6
2017-09-06T00:55:43.776Z,14.65
2017-09-06T00:56:43.806Z,14.68
2017-09-06T00:57:43.506Z,14.62
2017-09-06T00:58:43.861Z,14.65
2017-09-06T00:59:43.864Z,14.69
2017-09-06T01:00:43.880Z,14.65
2017-09-06T01:01:58.528Z,14.52
2017-09-06T01:02:43.928Z,14.55
2017-09-06T01:03:43.952Z,14.54
2017-09-06T01:04:43.666Z,14.57
2017-09-06T01:05:44.000Z,14.54
2017-09-06T01:06:44.018Z,14.68
2017-09-06T01:07:44.047Z,14.61
2017-09-06T01:08:44.075Z,14.54
2017-09-06T01:09:44.095Z,14.62
2017-09-06T01:10:44.116Z,14.5
2017-09-06T01:11:44.137Z,14.47
2017-09-06T01:12:44.151Z,14.46
2017-09-06T01:13:44.175Z,14.52
2017-09-06T01:14:44.200Z,14.42
2017-09-06T01:15:58.849Z,14.35
2017-09-06T01:17:43.975Z,14.46
2017-09-06T01:18:44.297Z,14.46
2017-09-06T01:19:58.631Z,14.35
2017-09-06T01:20:44.342Z,14.36
2017-09-06T01:22:44.073Z,14.39
2017-09-06T01:23:44.409Z,14.36
2017-09-06T01:24:44.127Z,14.32
2017-09-06T01:25:44.505Z,14.35
2017-09-06T01:26:44.473Z,14.32
2017-09-06T01:27:44.504Z,14.27
2017-09-06T01:28:44.529Z,14.2
2017-09-06T01:29:44.548Z,14.33
2017-09-06T01:30:44.271Z,14.29
2017-09-06T01:31:44.283Z,14.15
2017-09-06T01:32:44.624Z,14.04
2017-09-06T01:34:44.675Z,14.1
2017-09-06T01:35:44.689Z,14.14
2017-09-06T01:36:44.709Z,14.21
2017-09-06T01:37:44.420Z,14.2
2017-09-06T01:38:44.760Z,14.22
2017-09-06T01:39:44.784Z,14.18
2017-09-06T01:40:44.802Z,14.22
2017-09-06T01:41:44.825Z,14.1
2017-09-06T01:42:44.842Z,14.04
2017-09-06T01:43:44.872Z,14.09
2017-09-06T01:44:44.886Z,13.97
2017-09-06T01:45:44.924Z,14.02
2017-09-06T01:46:44.936Z,13.91
2017-09-06T01:47:44.961Z,13.92
2017-09-06T01:48:59.655Z,13.91
2017-09-06T01:49:45.007Z,13.99
2017-09-06T01:50:45.032Z,13.85
2017-09-06T01:51:59.664Z,13.89
2017-09-06T01:52:45.075Z,13.89
2017-09-06T01:53:45.110Z,13.99
2017-09-06T01:54:45.126Z,13.99
2017-09-06T01:55:45.143Z,14
2017-09-06T01:56:45.172Z,14.02
2017-09-06T01:57:59.814Z,14.02
2017-09-06T01:58:44.895Z,13.99
2017-09-06T01:59:45.238Z,14.1
2017-09-06T02:01:45.305Z,14.06
2017-09-06T02:02:59.926Z,14.07
2017-09-06T02:03:45.009Z,14.1
2017-09-06T02:04:59.967Z,14.06
2017-09-06T02:05:45.373Z,14.07
2017-09-06T02:06:45.391Z,14.09
2017-09-06T02:07:45.107Z,14.12
2017-09-06T02:08:45.436Z,14.09
2017-09-06T02:09:45.463Z,14.09
2017-09-06T02:10:45.477Z,14.12
2017-09-06T02:11:45.504Z,14.07
2017-09-06T02:12:45.579Z,14.09
2017-09-06T02:13:45.558Z,14.1
2017-09-06T02:14:45.574Z,14.03
2017-09-06T02:15:45.336Z,14.2
2017-09-06T02:16:45.626Z,14.17
2017-09-06T02:17:45.646Z,14.14
2017-09-06T02:18:45.661Z,14.04
2017-09-06T02:19:45.685Z,14.09
2017-09-06T02:21:00.329Z,14.2
2017-09-06T02:21:45.737Z,14.18
2017-09-06T02:22:45.759Z,14.18
2017-09-06T02:23:45.785Z,14.18
2017-09-06T02:24:45.801Z,14.24
2017-09-06T02:25:45.509Z,14.17
2017-09-06T02:26:45.846Z,14.21
2017-09-06T02:27:45.564Z,14.22
2017-09-06T02:28:45.582Z,14.22
2017-09-06T02:29:45.606Z,14.17
2017-09-06T02:30:45.939Z,14.1
2017-09-06T02:31:45.964Z,14.03
2017-09-06T02:32:45.985Z,14.18
2017-09-06T02:33:46.002Z,14.2
2017-09-06T02:34:45.733Z,14.18
2017-09-06T02:35:46.046Z,14.03
2017-09-06T02:37:00.691Z,14.1
2017-09-06T02:37:46.097Z,14.1
2017-09-06T02:38:46.118Z,14.14
2017-09-06T02:39:45.837Z,14.09
2017-09-06T02:40:46.168Z,14.12
2017-09-06T02:41:46.182Z,14.04
2017-09-06T02:42:46.222Z,14.03
2017-09-06T02:43:46.236Z,13.99
2017-09-06T02:44:45.943Z,14.06
2017-09-06T02:45:45.966Z,14.15
2017-09-06T02:46:46.299Z,14.09
2017-09-06T02:47:46.333Z,14.12
2017-09-06T02:48:46.392Z,14.17
2017-09-06T02:49:46.364Z,14.09
2017-09-06T02:50:46.383Z,14.14
2017-09-06T02:52:01.036Z,14.07
2017-09-06T02:52:45.817Z,14.14
2017-09-06T02:53:46.460Z,14.07
2017-09-06T02:55:00.794Z,13.91
2017-09-06T02:55:46.511Z,13.95
2017-09-06T02:56:46.533Z,13.95
2017-09-06T02:57:46.563Z,13.95
2017-09-06T02:58:46.572Z,13.87
2017-09-06T02:59:46.592Z,13.91
2017-09-06T03:00:46.619Z,13.89
2017-09-06T03:01:46.644Z,13.92
2017-09-06T03:02:46.659Z,13.99
2017-09-06T03:03:46.681Z,13.91
2017-09-06T03:04:46.398Z,14.03
2017-09-06T03:05:46.726Z,14.12
2017-09-06T03:06:46.759Z,14.1
2017-09-06T03:07:46.780Z,14.14
2017-09-06T03:08:46.489Z,14.07
2017-09-06T03:09:46.197Z,14.02
2017-09-06T03:10:46.855Z,14.09
2017-09-06T03:11:46.864Z,14.21
2017-09-06T03:12:46.897Z,14.12
2017-09-06T03:13:46.913Z,14.1
2017-09-06T03:14:46.932Z,14.04
2017-09-06T03:15:46.661Z,14.12
2017-09-06T03:16:46.975Z,14.14
2017-09-06T03:17:46.996Z,14.14
2017-09-06T03:18:47.027Z,14.06
2017-09-06T03:19:47.049Z,14.21
2017-09-06T03:20:46.753Z,14.12
2017-09-06T03:22:01.712Z,14.18
2017-09-06T03:22:47.120Z,14.18
2017-09-06T03:24:01.451Z,14.1
2017-09-06T03:24:47.162Z,14.2
2017-09-06T03:25:46.879Z,14.12
2017-09-06T03:26:46.894Z,14.18
2017-09-06T03:27:47.226Z,14.22
2017-09-06T03:28:47.254Z,14.15
2017-09-06T03:29:47.331Z,14.14
2017-09-06T03:30:47.297Z,14.25
2017-09-06T03:31:47.322Z,14.17
2017-09-06T03:32:47.340Z,14.12
2017-09-06T03:34:47.388Z,14.2
2017-09-06T03:35:47.400Z,14.17
2017-09-06T03:36:47.429Z,14.18
2017-09-06T03:37:47.144Z,14.21
2017-09-06T03:38:47.477Z,14.22
2017-09-06T03:40:02.119Z,14.17
2017-09-06T03:41:46.925Z,14.17
2017-09-06T03:42:47.257Z,14.21
2017-09-06T03:43:47.276Z,14.25
2017-09-06T03:44:47.297Z,14.37
2017-09-06T03:45:47.632Z,14.32
2017-09-06T03:46:47.654Z,14.33
2017-09-06T03:47:47.687Z,14.42
2017-09-06T03:48:47.699Z,14.37
2017-09-06T03:49:47.728Z,14.43
2017-09-06T03:50:47.743Z,14.4
2017-09-06T03:52:47.790Z,14.46
2017-09-06T03:53:47.820Z,14.39
2017-09-06T03:54:47.839Z,14.47
2017-09-06T03:56:02.475Z,14.51
2017-09-06T03:56:47.919Z,14.42
2017-09-06T03:58:47.922Z,14.43
2017-09-06T03:59:47.947Z,14.42
2017-09-06T04:00:47.971Z,14.47
2017-09-06T04:01:47.994Z,14.52
2017-09-06T04:02:48.017Z,14.5
2017-09-06T04:03:48.046Z,14.51
2017-09-06T04:04:48.059Z,14.52
2017-09-06T04:05:48.080Z,14.57
2017-09-06T04:06:48.102Z,14.64
2017-09-06T04:07:48.120Z,14.58
2017-09-06T04:08:48.150Z,14.61
2017-09-06T04:09:48.181Z,14.6
2017-09-06T04:10:48.206Z,14.54
2017-09-06T04:12:02.840Z,14.61
2017-09-06T04:13:48.265Z,14.64
2017-09-06T04:14:48.292Z,14.65
2017-09-06T04:15:48.313Z,14.55
2017-09-06T04:16:48.338Z,14.64
2017-09-06T04:17:48.361Z,14.51
2017-09-06T04:18:48.387Z,14.72
2017-09-06T04:19:48.088Z,14.65
2017-09-06T04:20:48.420Z,14.61
2017-09-06T04:21:48.494Z,14.65
2017-09-06T04:23:03.091Z,14.64
2017-09-06T04:23:48.491Z,14.61
2017-09-06T04:24:48.522Z,14.69
2017-09-06T04:27:02.874Z,14.62
2017-09-06T04:27:48.586Z,14.75
2017-09-06T04:28:48.613Z,14.62
2017-09-06T04:29:48.626Z,14.64
2017-09-06T04:30:48.649Z,14.68
2017-09-06T04:31:48.673Z,14.6
2017-09-06T04:32:48.696Z,14.69
2017-09-06T04:33:48.727Z,14.58
2017-09-06T04:34:48.744Z,14.77
2017-09-06T04:35:48.455Z,14.7
2017-09-06T04:36:48.788Z,14.77
2017-09-06T04:37:48.812Z,14.75
2017-09-06T04:38:48.834Z,14.73
2017-09-06T04:39:48.856Z,14.7
2017-09-06T04:40:48.876Z,14.7
2017-09-06T04:41:48.896Z,14.68
2017-09-06T04:43:03.543Z,14.72
2017-09-06T04:43:48.952Z,14.65
2017-09-06T04:44:48.972Z,14.73
2017-09-06T04:45:49.000Z,14.78
2017-09-06T04:48:48.747Z,14.89
2017-09-06T04:49:49.081Z,14.92
2017-09-06T04:50:49.108Z,14.89
2017-09-06T04:51:48.817Z,14.89
2017-09-06T04:52:48.837Z,14.96
2017-09-06T04:53:49.173Z,14.81
2017-09-06T04:54:49.198Z,14.95
2017-09-06T04:55:49.213Z,14.89
2017-09-06T04:56:49.245Z,14.84
2017-09-06T04:57:48.957Z,14.84
2017-09-06T04:59:03.901Z,14.88
2017-09-06T04:59:49.317Z,14.83
2017-09-06T05:00:49.338Z,14.8
2017-09-06T05:01:49.359Z,14.77
2017-09-06T05:02:49.067Z,14.77
2017-09-06T05:03:49.402Z,14.77
2017-09-06T05:04:49.426Z,14.77
2017-09-06T05:05:49.445Z,14.78
2017-09-06T05:06:49.469Z,14.75
2017-09-06T05:07:49.490Z,14.78
2017-09-06T05:08:49.518Z,14.8
2017-09-06T05:09:49.540Z,14.73
2017-09-06T05:11:49.594Z,14.78
2017-09-06T05:12:49.610Z,14.75
2017-09-06T05:13:49.640Z,14.77
2017-09-06T05:15:04.275Z,14.77
2017-09-06T05:15:49.669Z,14.75
2017-09-06T05:16:49.702Z,14.75
2017-09-06T05:17:49.720Z,14.78
2017-09-06T05:18:49.735Z,14.89
2017-09-06T05:19:49.764Z,14.88
2017-09-06T05:20:49.784Z,14.84
2017-09-06T05:21:49.814Z,14.84
2017-09-06T05:22:49.834Z,14.94
2017-09-06T05:23:49.856Z,14.86
2017-09-06T05:24:49.885Z,14.88
2017-09-06T05:25:49.592Z,14.91
2017-09-06T05:26:49.923Z,14.92
2017-09-06T05:27:49.946Z,14.99
2017-09-06T05:28:49.653Z,15.06
2017-09-06T05:29:49.688Z,15.02
2017-09-06T05:31:04.639Z,15.01
2017-09-06T05:31:49.725Z,15.07
2017-09-06T05:32:49.743Z,15.1
2017-09-06T05:33:50.084Z,15.01
2017-09-06T05:36:04.440Z,14.95
2017-09-06T05:36:49.846Z,14.99
2017-09-06T05:37:49.864Z,15.09
2017-09-06T05:38:49.885Z,15.03
2017-09-06T05:39:49.911Z,15.14
2017-09-06T05:41:49.955Z,15.09
2017-09-06T05:43:04.910Z,15.19
2017-09-06T05:43:50.311Z,15.07
2017-09-06T05:44:50.023Z,15.2
2017-09-06T05:45:50.356Z,15.19
2017-09-06T05:47:04.992Z,15.23
2017-09-06T05:48:05.017Z,15.2
2017-09-06T05:48:50.424Z,15.25
2017-09-06T05:49:50.450Z,15.28
2017-09-06T05:50:50.468Z,15.35
2017-09-06T05:51:50.495Z,15.31
2017-09-06T05:52:50.515Z,15.28
2017-09-06T05:53:50.533Z,15.32
2017-09-06T05:54:50.562Z,15.39
2017-09-06T05:55:50.275Z,15.34
2017-09-06T05:56:50.303Z,15.27
2017-09-06T05:57:50.313Z,15.44
2017-09-06T05:58:50.650Z,15.49
2017-09-06T05:59:50.686Z,15.43
2017-09-06T06:00:50.702Z,15.43
2017-09-06T06:02:05.343Z,15.44
2017-09-06T06:02:50.739Z,15.51
2017-09-06T06:03:50.457Z,15.46
2017-09-06T06:04:50.169Z,15.5
2017-09-06T06:05:50.815Z,15.46
2017-09-06T06:06:50.837Z,15.49
2017-09-06T06:07:50.859Z,15.49
2017-09-06T06:08:50.884Z,15.53
2017-09-06T06:09:50.904Z,15.53
2017-09-06T06:10:50.930Z,15.6
2017-09-06T06:11:50.995Z,15.57
2017-09-06T06:12:50.975Z,15.68
2017-09-06T06:13:50.994Z,15.65
2017-09-06T06:14:51.012Z,15.67
2017-09-06T06:15:51.035Z,15.69
2017-09-06T06:16:51.071Z,15.74
2017-09-06T06:17:50.780Z,15.71
2017-09-06T06:18:51.108Z,15.69
2017-09-06T06:19:51.191Z,15.76
2017-09-06T06:20:51.150Z,15.76
2017-09-06T06:21:50.876Z,15.8
2017-09-06T06:23:51.230Z,15.83
2017-09-06T06:25:51.266Z,15.89
2017-09-06T06:26:51.295Z,15.89
2017-09-06T06:27:51.318Z,15.86
2017-09-06T06:29:05.966Z,15.8
2017-09-06T06:30:05.991Z,15.8
2017-09-06T06:30:51.392Z,15.84
2017-09-06T06:31:51.414Z,15.78
2017-09-06T06:32:51.436Z,15.83
2017-09-06T06:34:06.080Z,15.76
2017-09-06T06:34:51.483Z,15.76
2017-09-06T06:35:51.513Z,15.8
2017-09-06T06:36:51.214Z,15.83
2017-09-06T06:37:51.553Z,15.83
2017-09-06T06:38:51.579Z,15.83
2017-09-06T06:39:51.606Z,15.89
2017-09-06T06:40:51.627Z,15.84
2017-09-06T06:41:51.654Z,15.87
2017-09-06T06:42:51.682Z,15.92
2017-09-06T06:44:51.715Z,15.83
2017-09-06T06:46:06.359Z,16.02
2017-09-06T06:46:51.758Z,15.9
2017-09-06T06:47:51.788Z,15.97
2017-09-06T06:48:51.798Z,15.96
2017-09-06T06:50:06.450Z,16.02
2017-09-06T06:50:51.912Z,16.09
2017-09-06T06:51:51.874Z,16.14
2017-09-06T06:52:51.909Z,16.23
2017-09-06T06:53:51.922Z,16.24
2017-09-06T06:54:51.946Z,16.28
2017-09-06T06:55:52.073Z,16.28
2017-09-06T06:56:51.993Z,16.33
2017-09-06T06:57:52.010Z,16.35
2017-09-06T06:58:52.041Z,16.41
2017-09-06T06:59:51.906Z,16.33
2017-09-06T07:00:52.187Z,16.34
2017-09-06T07:01:51.810Z,16.46
2017-09-06T07:02:52.128Z,16.46
2017-09-06T07:03:52.161Z,16.46
2017-09-06T07:05:06.799Z,16.53
2017-09-06T07:06:06.827Z,16.67
2017-09-06T07:06:52.376Z,16.64
2017-09-06T07:08:06.862Z,16.68
2017-09-06T07:08:52.281Z,16.64
2017-09-06T07:09:52.297Z,16.79
2017-09-06T07:10:52.418Z,16.83
2017-09-06T07:11:52.447Z,16.91
2017-09-06T07:12:52.369Z,16.94
2017-09-06T07:13:52.390Z,16.98
2017-09-06T07:14:52.412Z,17.06
2017-09-06T07:15:52.432Z,17.16
2017-09-06T07:16:52.609Z,17.15
2017-09-06T07:17:52.483Z,17.3
2017-09-06T07:18:52.604Z,17.26
2017-09-06T07:19:52.533Z,17.22
2017-09-06T07:20:52.649Z,17.26
2017-09-06T07:22:07.192Z,17.31
2017-09-06T07:22:52.606Z,17.41
2017-09-06T07:23:52.623Z,17.4
2017-09-06T07:24:52.651Z,17.41
2017-09-06T07:25:52.664Z,17.52
2017-09-06T07:26:52.799Z,17.52
2017-09-06T07:27:52.705Z,17.52
2017-09-06T07:28:52.583Z,17.52
2017-09-06T07:29:52.765Z,17.54
2017-09-06T07:30:52.580Z,17.48
2017-09-06T07:31:52.807Z,17.48
2017-09-06T07:32:52.842Z,17.55
2017-09-06T07:34:07.682Z,17.51
2017-09-06T07:35:07.502Z,17.59
2017-09-06T07:35:52.692Z,17.63
2017-09-06T07:37:07.558Z,17.81
2017-09-06T07:37:52.652Z,17.71
2017-09-06T07:38:52.675Z,17.9
2017-09-06T07:40:53.224Z,18.11
2017-09-06T07:41:53.054Z,18.25
2017-09-06T07:42:53.130Z,18.39
2017-09-06T07:43:53.091Z,18.36
2017-09-06T07:44:53.135Z,18.5
2017-09-06T07:45:52.836Z,18.48
2017-09-06T07:46:53.263Z,18.51
2017-09-06T07:47:53.198Z,18.44
2017-09-06T07:48:53.322Z,18.47
2017-09-06T07:49:53.038Z,18.42
2017-09-06T07:50:53.262Z,18.47
2017-09-06T07:51:53.393Z,18.5
2017-09-06T07:52:53.411Z,18.44
2017-09-06T07:53:53.333Z,18.42
2017-09-06T07:54:53.046Z,18.36
2017-09-06T07:55:53.390Z,18.5
2017-09-06T07:56:53.096Z,18.51
2017-09-06T07:57:53.534Z,18.57
2017-09-06T07:58:53.558Z,18.7
2017-09-06T07:59:53.483Z,18.81
2017-09-06T08:00:53.701Z,18.91
2017-09-06T08:01:53.525Z,19.02
2017-09-06T08:02:53.753Z,19.21
2017-09-06T08:03:53.683Z,19.43
2017-09-06T08:04:53.694Z,19.4
2017-09-06T08:05:53.625Z,19.56
2017-09-06T08:06:53.649Z,19.68
2017-09-06T08:07:53.680Z,19.63
2017-09-06T08:09:08.321Z,19.8
2017-09-06T08:09:53.723Z,19.76
2017-09-06T08:11:08.360Z,19.8
2017-09-06T08:11:53.781Z,19.86
2017-09-06T08:12:53.479Z,19.83
2017-09-06T08:13:53.820Z,19.77
2017-09-06T08:14:53.838Z,19.74
2017-09-06T08:15:54.076Z,19.87
2017-09-06T08:16:53.894Z,19.84
2017-09-06T08:17:54.069Z,19.76
2017-09-06T08:18:53.635Z,19.76
2017-09-06T08:20:08.591Z,19.77
2017-09-06T08:21:08.610Z,19.56
2017-09-06T08:21:53.711Z,19.73
2017-09-06T08:22:54.146Z,19.73
2017-09-06T08:23:54.169Z,19.73
2017-09-06T08:25:08.399Z,19.69
2017-09-06T08:25:54.365Z,19.74
2017-09-06T08:26:54.240Z,19.68
2017-09-06T08:27:54.167Z,19.65
2017-09-06T08:28:54.073Z,19.65
2017-09-06T08:29:54.313Z,19.5
2017-09-06T08:30:54.241Z,19.47
2017-09-06T08:31:54.258Z,19.41
2017-09-06T08:32:54.289Z,19.43
2017-09-06T08:33:54.003Z,19.31
2017-09-06T08:34:54.484Z,19.25
2017-09-06T08:35:54.511Z,19.31
2017-09-06T08:37:09.006Z,19.18
2017-09-06T08:37:54.093Z,19.11
2017-09-06T08:38:54.426Z,19.11
2017-09-06T08:39:54.144Z,19.04
2017-09-06T08:41:09.150Z,18.85
2017-09-06T08:42:09.120Z,18.72
2017-09-06T08:42:54.730Z,18.7
2017-09-06T08:43:54.553Z,18.62
2017-09-06T08:44:54.269Z,18.47
2017-09-06T08:45:54.607Z,18.42
2017-09-06T08:46:54.513Z,18.36
2017-09-06T08:47:54.437Z,18.39
2017-09-06T08:48:54.678Z,18.42
2017-09-06T08:49:54.701Z,18.44
2017-09-06T08:51:09.345Z,18.39
2017-09-06T08:51:54.846Z,18.42
2017-09-06T08:53:54.490Z,18.42
2017-09-06T08:54:54.920Z,18.42
2017-09-06T08:55:54.845Z,18.39
2017-09-06T08:57:09.495Z,18.33
2017-09-06T08:57:54.894Z,18.41
2017-09-06T08:59:54.941Z,18.37
2017-09-06T09:00:54.972Z,18.36
2017-09-06T09:01:55.139Z,18.39
2017-09-06T09:02:55.161Z,18.29
2017-09-06T09:03:54.723Z,18.29
2017-09-06T09:04:55.159Z,18.41
2017-09-06T09:05:54.925Z,18.47
2017-09-06T09:06:55.214Z,18.45
2017-09-06T09:07:55.131Z,18.39
2017-09-06T09:08:54.540Z,18.39
2017-09-06T09:09:55.187Z,18.39
2017-09-06T09:10:55.203Z,18.5
2017-09-06T09:12:09.540Z,18.51
2017-09-06T09:12:55.358Z,18.62
2017-09-06T09:13:55.375Z,18.6
2017-09-06T09:14:55.298Z,18.55
2017-09-06T09:15:55.022Z,18.62
2017-09-06T09:16:55.038Z,18.66
2017-09-06T09:17:55.376Z,18.73
2017-09-06T09:18:55.490Z,18.76
2017-09-06T09:19:55.429Z,18.76
2017-09-06T09:20:55.542Z,18.87
2017-09-06T09:21:55.259Z,18.8
2017-09-06T09:22:55.493Z,18.9
2017-09-06T09:23:55.625Z,19.04
2017-09-06T09:24:55.653Z,18.9
2017-09-06T09:25:55.562Z,18.94
2017-09-06T09:26:55.698Z,18.98
2017-09-06T09:27:55.308Z,18.94
2017-09-06T09:29:09.948Z,18.94
2017-09-06T09:30:55.794Z,18.81
2017-09-06T09:31:55.810Z,18.92
2017-09-06T09:32:55.741Z,18.88
2017-09-06T09:33:55.460Z,18.8
2017-09-06T09:34:55.881Z,18.67
2017-09-06T09:35:55.646Z,18.7
2017-09-06T09:36:55.830Z,18.63
2017-09-06T09:37:55.857Z,18.6
2017-09-06T09:38:55.678Z,18.52
2017-09-06T09:39:55.906Z,18.58
2017-09-06T09:40:55.923Z,18.55
2017-09-06T09:41:55.953Z,18.47
2017-09-06T09:42:55.975Z,18.48
2017-09-06T09:44:10.625Z,18.48
2017-09-06T09:44:55.815Z,18.35
2017-09-06T09:45:56.048Z,18.45
2017-09-06T09:46:56.118Z,18.44
2017-09-06T09:47:56.101Z,18.48
2017-09-06T09:48:56.122Z,18.5
2017-09-06T09:49:56.142Z,18.58
2017-09-06T09:50:56.173Z,18.65
2017-09-06T09:51:56.196Z,18.65
2017-09-06T09:52:55.922Z,18.78
2017-09-06T09:53:56.343Z,18.91
2017-09-06T09:54:56.263Z,18.94
2017-09-06T09:55:56.079Z,18.99
2017-09-06T09:56:56.459Z,19.02
2017-09-06T09:57:56.483Z,18.92
2017-09-06T09:58:56.367Z,19.02
2017-09-06T10:00:10.698Z,19.06
2017-09-06T10:00:56.563Z,19.1
2017-09-06T10:01:56.532Z,19.22
2017-09-06T10:02:56.459Z,19.36
2017-09-06T10:03:56.585Z,19.54
2017-09-06T10:04:56.652Z,19.58
2017-09-06T10:05:56.525Z,19.66
2017-09-06T10:06:56.246Z,19.66
2017-09-06T10:08:11.206Z,19.56
2017-09-06T10:08:56.710Z,19.74
2017-09-06T10:10:56.656Z,19.74
2017-09-06T10:11:56.689Z,19.76
2017-09-06T10:12:56.703Z,19.77
2017-09-06T10:13:56.741Z,19.78
2017-09-06T10:14:56.751Z,19.92
2017-09-06T10:16:11.491Z,19.86
2017-09-06T10:16:56.486Z,19.99
2017-09-06T10:17:56.511Z,20.06
2017-09-06T10:18:57.048Z,20.13
2017-09-06T10:19:56.877Z,20.14
2017-09-06T10:20:56.901Z,20.1
2017-09-06T10:21:56.619Z,20.08
2017-09-06T10:22:56.952Z,20.11
2017-09-06T10:23:56.975Z,20.24
2017-09-06T10:24:57.111Z,20.26
2017-09-06T10:26:11.697Z,20.5
2017-09-06T10:26:57.149Z,20.64
2017-09-06T10:27:57.184Z,20.7
2017-09-06T10:28:57.204Z,20.72
2017-09-06T10:29:56.507Z,20.77
2017-09-06T10:30:57.502Z,20.89
2017-09-06T10:32:11.792Z,21.03
2017-09-06T10:33:57.221Z,21.12
2017-09-06T10:34:57.243Z,20.91
2017-09-06T10:35:57.370Z,20.97
2017-09-06T10:36:57.303Z,21.14
2017-09-06T10:37:57.423Z,21.31
2017-09-06T10:38:57.607Z,21.4
2017-09-06T10:39:57.162Z,21.62
2017-09-06T10:40:57.649Z,21.69
2017-09-06T10:41:57.622Z,21.9
2017-09-06T10:42:57.449Z,22.05
2017-09-06T10:43:57.573Z,22.25
2017-09-06T10:44:57.596Z,22.3
2017-09-06T10:45:57.419Z,22.25
2017-09-06T10:47:12.175Z,22.22
2017-09-06T10:47:57.691Z,22.28
2017-09-06T10:48:57.705Z,22.07
2017-09-06T10:50:12.261Z,22.14
2017-09-06T10:50:57.703Z,22.07
2017-09-06T10:51:57.680Z,22.15
2017-09-06T10:52:57.806Z,22.25
2017-09-06T10:53:57.882Z,22.31
2017-09-06T10:54:57.877Z,22.4
2017-09-06T10:55:57.939Z,22.37
2017-09-06T10:56:57.502Z,22.42
2017-09-06T10:57:57.834Z,22.31
2017-09-06T10:58:57.964Z,22.33
2017-09-06T10:59:57.892Z,22.25
2017-09-06T11:00:57.923Z,22.18
2017-09-06T11:02:12.561Z,22.25
2017-09-06T11:02:58.074Z,22.1
2017-09-06T11:03:57.685Z,21.88
2017-09-06T11:04:57.703Z,21.88
2017-09-06T11:06:57.871Z,21.79
2017-09-06T11:07:58.099Z,21.68
2017-09-06T11:08:58.223Z,21.61
2017-09-06T11:09:58.150Z,21.61
2017-09-06T11:10:58.185Z,21.54
2017-09-06T11:11:58.304Z,21.61
2017-09-06T11:12:58.232Z,21.54
2017-09-06T11:13:58.497Z,21.59
2017-09-06T11:14:58.433Z,21.56
2017-09-06T11:15:58.401Z,21.5
2017-09-06T11:17:12.950Z,21.37
2017-09-06T11:17:58.051Z,21.42
2017-09-06T11:19:13.104Z,21.49
2017-09-06T11:19:58.417Z,21.44
2017-09-06T11:20:58.529Z,21.46
2017-09-06T11:21:58.148Z,21.43
2017-09-06T11:22:58.587Z,21.35
2017-09-06T11:23:58.510Z,21.37
2017-09-06T11:24:58.636Z,21.37
2017-09-06T11:25:58.664Z,21.46
2017-09-06T11:26:58.586Z,21.49
2017-09-06T11:28:13.336Z,21.56
2017-09-06T11:28:58.527Z,21.65
2017-09-06T11:30:13.287Z,21.53
2017-09-06T11:30:58.587Z,21.53
2017-09-06T11:33:58.460Z,21.5
2017-09-06T11:35:13.409Z,21.61
2017-09-06T11:36:13.433Z,21.67
2017-09-06T11:36:58.846Z,21.65
2017-09-06T11:37:58.973Z,21.88
2017-09-06T11:38:58.892Z,21.83
2017-09-06T11:39:58.925Z,21.99
2017-09-06T11:40:58.946Z,22
2017-09-06T11:41:59.069Z,22.07
2017-09-06T11:42:58.995Z,22.1
2017-09-06T11:43:59.018Z,22.28
2017-09-06T11:44:59.153Z,22.35
2017-09-06T11:45:58.975Z,22.45
2017-09-06T11:47:59.129Z,22.36
2017-09-06T11:48:59.155Z,22.46
2017-09-06T11:49:59.179Z,22.54
2017-09-06T11:51:13.827Z,22.55
2017-09-06T11:51:59.332Z,22.58
2017-09-06T11:53:58.975Z,22.72
2017-09-06T11:54:59.100Z,22.83
2017-09-06T11:55:59.170Z,22.72
2017-09-06T11:56:59.373Z,22.46
2017-09-06T11:57:58.763Z,22.52
2017-09-06T11:59:01.580Z,22.57
2017-09-06T11:59:59.274Z,22.58
2017-09-06T12:00:59.355Z,22.65
2017-09-06T12:01:59.794Z,22.83
2017-09-06T12:02:59.621Z,22.94
2017-09-06T12:04:14.162Z,22.97
2017-09-06T12:04:59.569Z,23.02
2017-09-06T12:05:59.591Z,23.07
2017-09-06T12:07:13.933Z,23.17
2017-09-06T12:07:59.651Z,23.32
2017-09-06T12:08:59.771Z,23.27
2017-09-06T12:09:59.854Z,23.22
2017-09-06T12:10:59.726Z,23.31
2017-09-06T12:12:59.780Z,23.35
2017-09-06T12:14:00.106Z,23.35
2017-09-06T12:15:03.691Z,23.27
2017-09-06T12:16:59.718Z,23.22
2017-09-06T12:17:59.913Z,23.35
2017-09-06T12:18:59.946Z,23.32
2017-09-06T12:20:14.580Z,23.55
2017-09-06T12:22:17.491Z,23.63
2017-09-06T12:22:59.846Z,23.57
2017-09-06T12:24:00.313Z,23.57
2017-09-06T12:24:59.779Z,23.51
2017-09-06T12:25:59.923Z,23.54
2017-09-06T12:27:01.354Z,23.55
2017-09-06T12:28:00.966Z,23.57
2017-09-06T12:29:00.210Z,23.51
2017-09-06T12:30:00.237Z,23.68
2017-09-06T12:31:00.241Z,23.55
2017-09-06T12:32:00.432Z,23.61
2017-09-06T12:33:00.462Z,23.72
2017-09-06T12:34:14.952Z,23.72
2017-09-06T12:35:00.360Z,23.75
2017-09-06T12:36:00.591Z,23.76
2017-09-06T12:37:15.032Z,23.79
2017-09-06T12:38:00.286Z,23.76
2017-09-06T12:39:00.463Z,23.87
2017-09-06T12:40:00.484Z,23.9
2017-09-06T12:41:00.516Z,23.95
2017-09-06T12:42:00.545Z,23.75
2017-09-06T12:43:00.675Z,23.93
2017-09-06T12:44:01.651Z,23.94
2017-09-06T12:45:00.408Z,24.18
2017-09-06T12:46:00.647Z,24.15
2017-09-06T12:47:00.775Z,24.2
2017-09-06T12:48:01.348Z,24.12
2017-09-06T12:49:00.734Z,24.12
2017-09-06T12:50:01.011Z,24.37
2017-09-06T12:51:15.408Z,24.45
2017-09-06T12:53:00.841Z,24.27
2017-09-06T12:54:15.492Z,24.18
2017-09-06T12:55:01.046Z,24.15
2017-09-06T12:56:15.538Z,24.18
2017-09-06T12:57:04.255Z,24.2
2017-09-06T12:58:00.974Z,24.21
2017-09-06T12:59:00.806Z,24.03
2017-09-06T13:00:01.233Z,23.9
2017-09-06T13:01:00.747Z,23.85
2017-09-06T13:02:00.774Z,23.97
2017-09-06T13:03:00.801Z,24.02
2017-09-06T13:05:01.170Z,23.88
2017-09-06T13:06:01.192Z,23.79
2017-09-06T13:07:01.217Z,23.73
2017-09-06T13:08:01.250Z,23.8
2017-09-06T13:09:01.477Z,23.9
2017-09-06T13:10:15.914Z,23.98
2017-09-06T13:11:15.941Z,24
2017-09-06T13:12:01.552Z,23.91
2017-09-06T13:13:01.384Z,23.98
2017-09-06T13:14:16.178Z,24.05
2017-09-06T13:15:01.433Z,24.05
2017-09-06T13:16:01.157Z,24
2017-09-06T13:17:01.641Z,23.93
2017-09-06T13:18:01.510Z,23.8
2017-09-06T13:19:01.545Z,23.68
2017-09-06T13:20:01.959Z,23.68
2017-09-06T13:21:01.598Z,23.6
2017-09-06T13:22:01.619Z,23.66
2017-09-06T13:23:01.654Z,23.55
2017-09-06T13:25:01.702Z,23.63
2017-09-06T13:26:16.346Z,23.48
2017-09-06T13:27:01.451Z,23.57
2017-09-06T13:28:01.306Z,23.38
2017-09-06T13:29:01.961Z,23.42
2017-09-06T13:30:01.985Z,23.48
2017-09-06T13:31:01.862Z,23.58
2017-09-06T13:32:01.735Z,23.6
2017-09-06T13:33:01.300Z,23.72